Airfield :
LOGIN :

Register | Disclaimer

   EN    FR    IT 

 










Legend :    VFR   Marginal VFR   IFR   Intensive IFR   Very Intensive IFR
Visi :
Ceiling :
>= 8 km
>= 3000ft
5 to 8 km
1000 to 3000 ft
1500m to 5 km
500 to 1000 ft
800 to 1500m
200 to 500 ft
< 800m
< 200 ft
Symbols :   Thunderstorms  Fog  Heavy snow  Heavy precipitations  Wind > 20 kt
SIGMETs :     Misc.  Thunderstorms  Icing  Turbulence  Mountain Waves  Volcanic Ashes







- Airport Elevation : 74 ft
- IATA code : EIN


EHEH - Eindhoven

CURRENT METAR :
  • 152355Z AUTO 17003KT 9999 NCD 04/01 Q1026 BLU

EXPIRED METARs :
  • 152325Z AUTO 17005KT 9999 FEW015CB 03/00 Q1026 BLU
  • 152255Z AUTO 16005KT 9999 NCD 04/01 Q1026 BLU
  • 152225Z AUTO 16006KT 9999 NCD 05/02 Q1026 BLU
  • 152202Z AUTO 17006KT 130V220 9999 NCD 05/02 Q1026 BLU
  • 152155Z AUTO 16006KT 140V220 9999 NCD 05/02 Q1026 BLU 15004KT CAVOK
  • 152125Z AUTO 15006KT 130V270 9999 FEW015CB 05/02 Q1026 BLU 15004KT CAVOK

TAF TAF EHEH
Valid from the 16 at 00:00 until the 17 at 06:00 UTC


152325Z 1600/1706 18006KT CAVOK
PROB40 1700/1706 2500 BR
No reported NOTAMs for that airfield.



MET'MAP, your aeronautical weather chart ! - Copyright ORBIFLY December 2007 - Disclaimer

ORBIFLY MET'MAP TEAM :

Programming & Development : Alexandra Zaïnal
Concept & Development : Baudouin d'Aumeries
Co-Development & Prog : Marc-Olivier Méhu
Technical & hardware support : Manuel Goepfert

Contact : metmap@orbifly.com




SOURCES & CREDITS :

   NOAA